Time;durP1;ratioP1;P1;durP2;ratioP2;P2;SDS_P1;SDS_P2;PMS_P1;PMS_P2;Temp;Humidity;BMP_temperature;BMP_pressure;BME280_temperature;BME280_humidity;BME280_pressure;Samples;Min_cycle;Max_cycle;Signal;HPM_P1;HPM_P2
2022/09/03 00:00:15;;;;;;;9.20;5.68;;;;;;;17.30;72.04;94871.94;4944586;28;20224;-65
2022/09/03 00:02:56;;;;;;;6.53;5.93;;;;;;;17.26;72.00;94881.28;4945820;28;20251;-65
2022/09/03 00:05:42;;;;;;;6.78;5.93;;;;;;;17.36;72.11;94876.44;4965481;28;20331;-65
2022/09/03 00:08:22;;;;;;;6.68;5.97;;;;;;;17.27;72.27;94882.91;4966732;28;20224;-65
2022/09/03 00:11:00;;;;;;;6.88;6.28;;;;;;;17.31;71.71;94889.50;4947081;28;20219;-65
2022/09/03 00:13:38;;;;;;;6.88;6.22;;;;;;;17.25;72.01;94884.97;4965984;28;20219;-65
2022/09/03 00:16:10;;;;;;;7.28;6.57;;;;;;;17.30;71.59;94875.41;4961612;28;20228;-65
2022/09/03 00:18:43;;;;;;;6.95;6.25;;;;;;;17.20;71.51;94878.41;4944404;28;20234;-65
2022/09/03 00:21:17;;;;;;;6.40;5.90;;;;;;;17.19;71.74;94876.78;4945752;28;20244;-74
2022/09/03 00:23:46;;;;;;;7.55;6.32;;;;;;;17.33;71.47;94875.00;4965086;28;20263;-65
2022/09/03 00:26:12;;;;;;;6.85;6.25;;;;;;;17.36;71.37;94884.41;4941461;28;20220;-65
2022/09/03 00:28:45;;;;;;;6.55;5.80;;;;;;;17.34;71.49;94873.16;4949957;28;20216;-65
2022/09/03 00:31:16;;;;;;;6.97;6.28;;;;;;;17.36;71.00;94871.94;4958232;28;20234;-65
2022/09/03 00:33:45;;;;;;;6.88;6.28;;;;;;;17.36;70.81;94871.94;4990627;28;20249;-65
2022/09/03 00:36:20;;;;;;;7.47;6.85;;;;;;;17.32;71.20;94877.84;4984273;28;20701;-65
2022/09/03 00:38:46;;;;;;;7.25;6.65;;;;;;;17.23;71.03;94871.06;4982523;28;20223;-64
2022/09/03 00:41:22;;;;;;;7.30;6.43;;;;;;;17.28;70.35;94879.25;4986747;28;20795;-64
2022/09/03 00:44:09;;;;;;;7.03;6.30;;;;;;;17.38;70.09;94877.06;4989262;28;20209;-65
2022/09/03 00:46:58;;;;;;;7.28;6.68;;;;;;;17.38;70.17;94869.09;4989979;28;20227;-64
2022/09/03 00:50:03;;;;;;;7.30;6.60;;;;;;;17.25;70.52;94869.03;4982699;28;20318;-64
2022/09/03 00:52:53;;;;;;;7.72;7.13;;;;;;;17.36;70.23;94879.09;4987932;28;20277;-65
2022/09/03 00:55:21;;;;;;;7.80;7.10;;;;;;;17.28;70.28;94881.94;4985315;28;20844;-65
2022/09/03 00:58:02;;;;;;;7.45;6.82;;;;;;;17.20;70.66;94881.06;4989310;28;20223;-65
2022/09/03 01:00:28;;;;;;;7.95;7.10;;;;;;;17.25;70.94;94885.78;4984247;28;20219;-65
2022/09/03 01:03:38;;;;;;;7.90;7.07;;;;;;;17.27;70.67;94882.91;4986928;28;20223;-65
2022/09/03 01:06:21;;;;;;;7.07;6.47;;;;;;;17.20;70.89;94878.41;4988784;28;20669;-65
2022/09/03 01:09:15;;;;;;;7.72;7.03;;;;;;;17.28;70.58;94876.59;4998572;28;20218;-65
2022/09/03 01:11:53;;;;;;;6.47;5.97;;;;;;;17.18;70.45;94877.78;5000836;28;20318;-65
2022/09/03 01:14:30;;;;;;;7.40;6.65;;;;;;;17.23;70.41;94876.38;4981135;28;20199;-65
2022/09/03 01:17:28;;;;;;;7.78;7.07;;;;;;;17.22;70.57;94875.56;4985509;28;20207;-65
2022/09/03 01:20:13;;;;;;;6.78;6.20;;;;;;;17.24;70.34;94873.53;4926025;28;20244;-65
2022/09/03 01:22:50;;;;;;;7.68;6.70;;;;;;;17.24;70.31;94875.34;4927970;29;20251;-65
2022/09/03 01:25:30;;;;;;;6.93;6.32;;;;;;;17.16;70.37;94877.16;4932636;28;20236;-65
2022/09/03 01:28:31;;;;;;;7.55;6.90;;;;;;;17.20;69.99;94877.59;4929012;29;20277;-65
2022/09/03 01:31:34;;;;;;;6.78;6.18;;;;;;;16.98;70.33;94890.13;4927757;29;20259;-65
2022/09/03 01:34:18;;;;;;;6.35;5.85;;;;;;;16.92;70.92;94886.41;4862309;29;20309;-65
2022/09/03 01:36:53;;;;;;;7.53;6.57;;;;;;;16.97;70.63;94901.75;4876274;29;20243;-65
2022/09/03 01:39:27;;;;;;;6.07;5.57;;;;;;;16.92;70.45;94910.31;4863285;29;20314;-65
2022/09/03 01:42:27;;;;;;;7.47;6.75;;;;;;;16.83;70.96;94903.50;4883081;29;20246;-65
2022/09/03 01:45:06;;;;;;;7.22;6.53;;;;;;;16.81;71.28;94902.84;4807601;29;20233;-65
2022/09/03 01:47:48;;;;;;;6.65;6.05;;;;;;;16.90;71.16;94898.25;4818661;29;20225;-65
2022/09/03 01:50:38;;;;;;;7.65;6.95;;;;;;;16.81;71.03;94889.59;4810256;29;20281;-65
2022/09/03 01:53:19;;;;;;;7.88;7.18;;;;;;;16.76;71.53;94895.47;4813582;29;20217;-65
2022/09/03 01:56:33;;;;;;;7.10;6.43;;;;;;;16.87;71.48;94888.00;4817646;29;20309;-65
2022/09/03 01:59:06;;;;;;;6.85;6.25;;;;;;;16.91;70.94;94883.94;4878751;29;20619;-65
2022/09/03 02:01:38;;;;;;;7.40;6.80;;;;;;;16.91;70.71;94884.75;4858130;29;20234;-65
2022/09/03 02:04:16;;;;;;;6.63;6.03;;;;;;;16.92;70.73;94886.41;4859806;29;20234;-65
2022/09/03 02:06:43;;;;;;;6.93;6.32;;;;;;;16.93;70.52;94892.53;4875595;29;20657;-65
2022/09/03 02:09:08;;;;;;;7.85;7.05;;;;;;;16.85;70.74;94874.09;4880129;29;20675;-65
2022/09/03 02:11:36;;;;;;;7.75;7.05;;;;;;;16.91;70.49;94883.94;4904887;29;20232;-65
2022/09/03 02:14:02;;;;;;;7.40;6.65;;;;;;;16.94;70.67;94887.03;4914744;29;20209;-62
2022/09/03 02:16:32;;;;;;;8.98;7.40;;;;;;;16.98;70.47;94906.06;4914548;29;20241;-67
2022/09/03 02:19:17;;;;;;;7.00;6.40;;;;;;;16.98;70.45;94900.75;4895400;29;20778;-61
2022/09/03 02:21:52;;;;;;;8.02;7.22;;;;;;;17.01;70.02;94900.34;4962076;28;20637;-65
2022/09/03 02:24:17;;;;;;;7.00;6.32;;;;;;;16.93;70.42;94896.00;5011683;28;20218;-62
2022/09/03 02:26:43;;;;;;;6.75;6.15;;;;;;;17.02;69.93;94895.88;5009627;28;20225;-67
2022/09/03 02:29:10;;;;;;;6.72;6.13;;;;;;;16.94;69.83;94905.63;5008209;28;20199;-66
2022/09/03 02:31:35;;;;;;;7.22;6.63;;;;;;;16.88;69.84;94911.72;5006203;28;20207;-62
2022/09/03 02:34:01;;;;;;;6.85;6.25;;;;;;;16.90;69.79;94903.56;5023745;28;20232;-67
2022/09/03 02:36:45;;;;;;;7.50;6.90;;;;;;;16.92;69.73;94898.84;5007195;28;20230;-65
2022/09/03 02:39:12;;;;;;;7.20;6.50;;;;;;;16.86;69.95;94908.41;5009170;28;20223;-60
2022/09/03 02:41:38;;;;;;;7.53;6.93;;;;;;;17.05;69.32;94909.56;5009192;28;20707;-65
2022/09/03 02:44:09;;;;;;;7.30;6.65;;;;;;;16.93;69.59;94909.28;5007952;28;20200;-67
2022/09/03 02:46:39;;;;;;;7.20;6.57;;;;;;;16.98;69.47;94906.06;5011296;28;20240;-67
2022/09/03 02:49:05;;;;;;;7.22;6.53;;;;;;;16.91;69.72;94907.84;5012639;28;20231;-68
2022/09/03 02:51:34;;;;;;;6.88;6.28;;;;;;;16.93;69.34;94913.78;5005483;28;20539;-60
2022/09/03 02:53:59;;;;;;;7.28;6.57;;;;;;;16.89;69.52;94920.50;5007974;28;20227;-65
2022/09/03 02:56:26;;;;;;;7.65;6.97;;;;;;;16.86;69.61;94924.34;5008015;28;20233;-61
2022/09/03 02:58:52;;;;;;;7.70;7.00;;;;;;;16.84;69.15;94922.91;5011431;28;20202;-64
2022/09/03 03:01:18;;;;;;;7.28;6.60;;;;;;;16.71;69.93;94918.28;5012021;28;20221;-62
2022/09/03 03:03:43;;;;;;;8.18;7.32;;;;;;;16.65;70.14;94914.59;5013919;28;20262;-65
2022/09/03 03:06:09;;;;;;;8.52;7.80;;;;;;;16.77;70.06;94920.22;5007034;28;20227;-68
2022/09/03 03:08:34;;;;;;;7.80;7.20;;;;;;;16.82;69.86;94917.78;5009056;28;20567;-67
2022/09/03 03:11:00;;;;;;;7.60;6.95;;;;;;;16.82;69.91;94917.78;5010278;28;20214;-62
2022/09/03 03:13:27;;;;;;;8.52;7.72;;;;;;;16.83;69.90;94918.63;5009455;28;20238;-65
2022/09/03 03:16:01;;;;;;;7.72;6.95;;;;;;;16.80;69.71;94913.69;5009097;28;20249;-62
2022/09/03 03:18:27;;;;;;;8.23;7.53;;;;;;;16.73;70.22;94914.44;5011998;28;20253;-67
2022/09/03 03:20:53;;;;;;;7.95;7.18;;;;;;;16.78;70.05;94918.38;5009932;28;20227;-68
2022/09/03 03:23:18;;;;;;;7.68;7.00;;;;;;;16.83;70.04;94911.47;5006769;28;20198;-67
2022/09/03 03:25:44;;;;;;;8.35;7.55;;;;;;;16.78;69.94;94905.91;5003559;28;20202;-67
2022/09/03 03:28:09;;;;;;;7.88;7.18;;;;;;;16.89;69.74;94913.38;5002451;28;20223;-67
2022/09/03 03:30:38;;;;;;;8.35;7.57;;;;;;;16.88;69.63;94910.88;5010840;28;20309;-65
2022/09/03 03:33:05;;;;;;;8.38;7.55;;;;;;;16.86;69.44;94907.59;5012386;28;20769;-61
2022/09/03 03:35:30;;;;;;;7.43;6.78;;;;;;;16.87;69.56;94917.22;5008180;28;20218;-67
2022/09/03 03:37:59;;;;;;;7.68;6.97;;;;;;;16.80;69.54;94917.16;5009560;28;20245;-64
2022/09/03 03:40:25;;;;;;;7.78;7.07;;;;;;;16.82;69.65;94914.31;5009312;28;20317;-65
2022/09/03 03:42:50;;;;;;;7.13;6.53;;;;;;;16.89;69.59;94918.69;5001325;28;20224;-61
2022/09/03 03:45:16;;;;;;;6.88;6.35;;;;;;;16.80;69.75;94921.66;5000873;28;20393;-65
2022/09/03 03:47:41;;;;;;;7.47;6.88;;;;;;;16.82;69.56;94916.97;5001809;28;20516;-65
2022/09/03 03:50:07;;;;;;;8.20;7.40;;;;;;;16.83;69.37;94923.94;5011443;28;20211;-65
2022/09/03 03:52:33;;;;;;;7.35;6.75;;;;;;;16.65;69.93;94925.19;5006360;28;20242;-61
2022/09/03 03:54:58;;;;;;;7.43;6.82;;;;;;;16.66;69.93;94918.03;5006349;28;20222;-65
2022/09/03 03:57:24;;;;;;;8.23;7.43;;;;;;;16.66;70.02;94913.56;5006626;28;20277;-67
2022/09/03 03:59:50;;;;;;;7.57;6.88;;;;;;;16.66;70.24;94920.69;5011794;28;20590;-65
2022/09/03 04:02:17;;;;;;;7.10;6.50;;;;;;;16.73;70.00;94929.53;5007416;28;20215;-61
2022/09/03 04:04:43;;;;;;;7.63;6.95;;;;;;;16.82;69.68;94932.91;5010688;28;20226;-62
2022/09/03 04:07:08;;;;;;;7.78;7.10;;;;;;;16.84;69.31;94931.72;5007560;28;20246;-66
2022/09/03 04:09:34;;;;;;;7.38;6.63;;;;;;;16.80;69.53;94930.44;5005173;28;20230;-61
2022/09/03 04:12:00;;;;;;;8.02;7.32;;;;;;;16.66;69.82;94916.22;5022106;28;20211;-67
2022/09/03 04:14:28;;;;;;;8.27;7.47;;;;;;;16.72;69.84;94923.41;5004662;28;20213;-65
2022/09/03 04:16:54;;;;;;;8.07;7.20;;;;;;;16.74;69.44;94920.56;5007350;28;20595;-60
2022/09/03 04:19:20;;;;;;;7.63;7.03;;;;;;;16.69;69.58;94923.78;5011594;28;20636;-65
2022/09/03 04:21:45;;;;;;;8.00;7.30;;;;;;;16.71;69.88;94916.47;5009285;28;20235;-67
2022/09/03 04:24:11;;;;;;;8.20;7.18;;;;;;;16.85;69.29;94927.22;5007083;28;20898;-61
2022/09/03 04:26:39;;;;;;;7.10;6.50;;;;;;;16.83;69.43;94927.41;5007183;28;20218;-68
2022/09/03 04:29:06;;;;;;;8.18;7.38;;;;;;;16.89;69.35;94916.03;5013200;28;20722;-60
2022/09/03 04:31:33;;;;;;;8.57;7.80;;;;;;;16.97;69.41;94925.66;5004910;28;20708;-64
2022/09/03 04:33:59;;;;;;;8.57;7.75;;;;;;;17.01;69.28;94926.94;5020092;28;20216;-67
2022/09/03 04:36:27;;;;;;;8.05;7.25;;;;;;;16.95;69.44;94933.03;5013478;28;20369;-60
2022/09/03 04:38:54;;;;;;;8.73;7.93;;;;;;;17.01;69.31;94942.88;5009180;28;20637;-68
2022/09/03 04:41:23;;;;;;;8.07;7.38;;;;;;;16.89;69.46;94944.38;5007135;28;20203;-61
2022/09/03 04:43:50;;;;;;;7.57;6.88;;;;;;;16.90;69.43;94951.38;5007051;28;20332;-68
2022/09/03 04:46:15;;;;;;;8.40;7.60;;;;;;;16.93;69.38;94956.28;5009840;28;20223;-66
2022/09/03 04:48:42;;;;;;;8.00;7.07;;;;;;;17.02;69.10;94954.31;5006526;28;20223;-66
2022/09/03 04:51:15;;;;;;;8.95;7.35;;;;;;;17.06;68.96;94967.00;5007154;28;20219;-67
2022/09/03 04:53:44;;;;;;;7.93;7.13;;;;;;;17.00;69.35;94962.47;5006547;28;20249;-65
2022/09/03 04:56:18;;;;;;;7.50;6.90;;;;;;;17.05;68.85;94970.66;5006973;28;20285;-61
2022/09/03 04:58:45;;;;;;;8.48;7.68;;;;;;;17.10;68.84;94978.88;5000312;28;20229;-64
2022/09/03 05:01:37;;;;;;;8.20;7.50;;;;;;;17.10;68.70;94973.56;5001431;28;20302;-67
2022/09/03 05:04:04;;;;;;;7.47;6.88;;;;;;;17.08;69.37;94972.97;5008570;28;20230;-65
2022/09/03 05:06:30;;;;;;;8.02;7.28;;;;;;;17.10;68.68;94986.84;5006991;28;20219;-66
2022/09/03 05:08:56;;;;;;;8.43;7.63;;;;;;;17.20;68.27;94979.38;4998636;28;20219;-65
2022/09/03 05:11:23;;;;;;;7.53;6.93;;;;;;;17.18;68.26;94985.88;5012782;28;20219;-69
2022/09/03 05:13:50;;;;;;;7.40;6.75;;;;;;;17.11;68.38;94980.53;5028584;28;20202;-66
2022/09/03 05:16:17;;;;;;;6.95;6.22;;;;;;;17.18;67.95;94981.41;5010960;28;20301;-61
2022/09/03 05:18:43;;;;;;;8.38;6.93;;;;;;;17.13;68.39;94977.69;5011050;28;20230;-69
2022/09/03 05:21:11;;;;;;;7.35;6.65;;;;;;;17.10;68.24;94978.06;5003907;28;20266;-68
2022/09/03 05:23:39;;;;;;;7.40;6.72;;;;;;;17.09;68.44;94979.91;5012114;28;20226;-64
2022/09/03 05:26:08;;;;;;;7.60;7.00;;;;;;;17.04;68.70;94971.69;5007872;28;20211;-68
2022/09/03 05:28:35;;;;;;;7.40;6.72;;;;;;;17.13;68.65;94981.19;5010934;28;20724;-67
2022/09/03 05:31:00;;;;;;;7.47;6.78;;;;;;;17.25;68.54;94983.28;5008103;28;20259;-62
2022/09/03 05:33:26;;;;;;;7.88;7.10;;;;;;;17.29;67.85;94977.38;5003101;28;20255;-66
2022/09/03 05:35:53;;;;;;;7.65;6.97;;;;;;;17.34;67.86;94979.47;5009218;28;20230;-66
2022/09/03 05:38:19;;;;;;;7.55;6.95;;;;;;;17.38;67.68;94980.72;5011640;28;20206;-67
2022/09/03 05:40:44;;;;;;;7.85;7.15;;;;;;;17.36;67.78;94977.44;5011335;28;20725;-66
2022/09/03 05:43:10;;;;;;;6.82;6.22;;;;;;;17.40;67.08;94984.84;5010435;28;20227;-69
2022/09/03 05:45:35;;;;;;;7.25;6.65;;;;;;;17.49;67.23;94985.50;5011244;28;20234;-66
2022/09/03 05:48:01;;;;;;;6.97;6.28;;;;;;;17.49;67.27;94984.69;5010340;28;20222;-68
2022/09/03 05:50:27;;;;;;;7.43;6.80;;;;;;;17.50;66.67;94992.44;4993325;28;20314;-66
2022/09/03 05:52:52;;;;;;;6.78;6.20;;;;;;;17.37;66.73;94989.69;5012066;28;20210;-68
2022/09/03 05:55:18;;;;;;;7.07;6.47;;;;;;;17.38;66.78;94994.84;5011277;28;20244;-69
2022/09/03 05:57:44;;;;;;;7.15;6.55;;;;;;;17.38;66.70;94994.84;5010753;28;20226;-64
2022/09/03 06:00:11;;;;;;;7.25;6.40;;;;;;;17.46;66.60;94991.22;5007756;28;20227;-65
2022/09/03 06:02:36;;;;;;;6.75;5.88;;;;;;;17.49;66.38;94993.47;4995514;28;20585;-65
2022/09/03 06:05:02;;;;;;;6.97;6.38;;;;;;;17.54;66.13;94985.75;5013603;28;20214;-66
2022/09/03 06:07:28;;;;;;;6.80;6.30;;;;;;;17.61;65.85;94996.41;5008591;28;20226;-63
2022/09/03 06:09:53;;;;;;;6.25;5.65;;;;;;;17.54;65.48;94991.06;5012467;28;20292;-67
2022/09/03 06:12:19;;;;;;;6.78;6.15;;;;;;;17.60;65.42;95002.75;5016776;28;20261;-69
2022/09/03 06:14:44;;;;;;;8.38;6.65;;;;;;;17.80;64.83;95008.19;5009534;28;20222;-68
2022/09/03 06:17:11;;;;;;;7.13;6.43;;;;;;;17.79;65.00;95003.91;5008158;28;20206;-70
2022/09/03 06:19:37;;;;;;;6.90;6.30;;;;;;;17.81;64.79;95000.03;4999746;28;20326;-66
2022/09/03 06:22:03;;;;;;;6.82;6.32;;;;;;;17.97;64.33;94998.06;5006085;28;20284;-69
2022/09/03 06:24:28;;;;;;;6.45;5.85;;;;;;;18.07;63.65;94999.34;5009123;28;20262;-67
2022/09/03 06:26:57;;;;;;;6.57;6.03;;;;;;;18.04;63.16;95002.41;4992827;28;20242;-64
2022/09/03 06:29:22;;;;;;;6.43;5.93;;;;;;;17.92;63.48;95003.97;5007198;28;20286;-71
2022/09/03 06:31:49;;;;;;;6.18;5.68;;;;;;;17.96;63.49;95005.22;5005308;28;20513;-68
2022/09/03 06:34:17;;;;;;;7.43;6.72;;;;;;;17.99;63.32;95014.63;5004802;28;20231;-63
2022/09/03 06:36:43;;;;;;;6.93;6.43;;;;;;;18.10;62.98;95019.41;5007054;28;20734;-70
2022/09/03 06:39:08;;;;;;;6.97;6.30;;;;;;;18.26;62.53;95015.59;5007129;28;20223;-68
2022/09/03 06:41:34;;;;;;;7.38;6.68;;;;;;;18.35;62.12;95013.56;5024058;28;20276;-71
2022/09/03 06:44:11;;;;;;;7.60;7.00;;;;;;;18.29;62.46;95008.00;5008826;28;20203;-69
2022/09/03 06:46:38;;;;;;;6.93;6.43;;;;;;;18.32;62.75;95017.44;5008416;28;20265;-70
2022/09/03 06:49:03;;;;;;;7.40;6.80;;;;;;;18.35;62.75;95014.38;5007594;28;20250;-69
2022/09/03 06:51:30;;;;;;;7.63;7.03;;;;;;;18.46;62.32;95019.09;4999125;28;20317;-71
2022/09/03 06:54:07;;;;;;;7.50;6.90;;;;;;;18.46;62.64;95019.09;5010167;28;20222;-64
2022/09/03 06:56:34;;;;;;;7.43;6.82;;;;;;;18.67;62.09;95015.47;4984730;28;20325;-62
2022/09/03 06:59:04;;;;;;;8.48;7.68;;;;;;;18.80;62.09;95017.38;5001695;28;20203;-66
2022/09/03 07:01:31;;;;;;;8.20;7.40;;;;;;;19.05;60.56;95022.13;5001728;28;20238;-64
2022/09/03 07:04:02;;;;;;;7.70;7.00;;;;;;;19.05;60.63;95019.47;5014311;28;20228;-67
2022/09/03 07:06:38;;;;;;;7.95;7.15;;;;;;;18.83;61.17;95016.97;5005936;28;20223;-67
2022/09/03 07:09:08;;;;;;;7.28;6.68;;;;;;;18.83;61.62;95011.66;5006488;28;20221;-65
2022/09/03 07:11:35;;;;;;;7.70;6.50;;;;;;;18.86;61.34;95031.75;5007459;28;20218;-68
2022/09/03 07:14:02;;;;;;;8.18;7.47;;;;;;;18.88;61.30;95027.03;5014806;28;20289;-67
2022/09/03 07:16:31;;;;;;;6.90;6.35;;;;;;;19.02;60.90;95031.34;5008251;28;20232;-66
2022/09/03 07:18:57;;;;;;;7.15;6.15;;;;;;;19.18;60.11;95040.78;5010628;28;20223;-66
2022/09/03 07:21:28;;;;;;;6.40;6.00;;;;;;;19.27;59.64;95028.91;4968300;28;1152484;-67
2022/09/03 07:23:55;;;;;;;7.07;6.55;;;;;;;19.30;59.54;95038.31;5002903;28;20599;-62
2022/09/03 07:26:29;;;;;;;7.78;7.07;;;;;;;19.31;59.66;95039.97;5008103;28;20607;-66
2022/09/03 07:28:55;;;;;;;7.80;6.53;;;;;;;19.41;59.46;95034.25;5003459;28;20213;-63
2022/09/03 07:31:26;;;;;;;8.57;7.82;;;;;;;19.59;59.05;95039.75;5006583;28;20231;-63
2022/09/03 07:34:00;;;;;;;7.80;7.20;;;;;;;19.72;58.67;95053.09;5005871;28;20248;-63
2022/09/03 07:36:28;;;;;;;6.93;6.38;;;;;;;19.66;58.62;95040.59;5012639;28;20309;-64
2022/09/03 07:38:56;;;;;;;6.57;6.07;;;;;;;19.64;58.72;95052.47;5007504;28;20243;-62
2022/09/03 07:41:22;;;;;;;6.90;6.40;;;;;;;19.72;58.67;95047.75;5022947;28;20213;-62
2022/09/03 07:43:47;;;;;;;7.15;6.55;;;;;;;19.72;58.61;95045.09;5002453;28;20297;-62
2022/09/03 07:46:22;;;;;;;7.05;6.55;;;;;;;20.04;57.58;95042.56;5006422;28;20223;-62
2022/09/03 07:48:49;;;;;;;7.90;7.20;;;;;;;20.10;57.99;95046.22;5017161;28;20873;-63
2022/09/03 07:51:16;;;;;;;6.60;6.10;;;;;;;20.09;57.28;95050.75;5007816;28;20598;-62
2022/09/03 07:53:42;;;;;;;5.88;5.40;;;;;;;20.01;57.14;95054.47;5010388;28;20227;-62
2022/09/03 07:56:09;;;;;;;6.78;6.18;;;;;;;20.03;56.71;95060.44;5008740;28;20574;-62
2022/09/03 07:58:36;;;;;;;6.22;5.72;;;;;;;19.78;58.01;95070.97;5001652;28;20253;-62
2022/09/03 08:01:07;;;;;;;6.75;6.15;;;;;;;19.61;58.29;95061.69;5006559;28;20953;-62
2022/09/03 08:03:37;;;;;;;6.55;6.05;;;;;;;19.59;58.24;95059.25;5010822;28;20254;-62
2022/09/03 08:06:05;;;;;;;7.55;6.95;;;;;;;19.77;58.17;95063.16;5001632;28;20226;-62
2022/09/03 08:08:32;;;;;;;7.72;7.03;;;;;;;19.80;57.99;95066.22;5001833;28;20198;-63
2022/09/03 08:11:10;;;;;;;7.38;6.80;;;;;;;19.82;57.99;95061.50;5005439;28;20243;-61
2022/09/03 08:13:47;;;;;;;7.03;6.53;;;;;;;19.79;58.15;95064.59;5005424;28;20233;-62
2022/09/03 08:16:15;;;;;;;7.28;6.68;;;;;;;19.85;58.46;95062.13;5004197;28;20234;-62
2022/09/03 08:18:41;;;;;;;7.43;6.82;;;;;;;20.01;57.64;95069.66;5003589;28;20310;-62
2022/09/03 08:21:15;;;;;;;5.47;5.07;;;;;;;20.20;56.26;95065.31;5005696;28;20238;-62
2022/09/03 08:23:52;;;;;;;5.90;5.50;;;;;;;20.27;56.15;95058.91;5006810;28;20574;-62
2022/09/03 08:26:19;;;;;;;6.65;6.15;;;;;;;20.45;55.82;95062.78;5009801;28;20604;-62
2022/09/03 08:28:45;;;;;;;6.20;5.75;;;;;;;20.46;55.72;95053.72;5009146;28;20285;-63
2022/09/03 08:31:17;;;;;;;5.65;5.25;;;;;;;20.37;56.22;95054.97;5007341;28;20311;-63
2022/09/03 08:33:49;;;;;;;6.38;5.78;;;;;;;20.57;55.92;95060.28;5003063;28;20244;-63
2022/09/03 08:36:24;;;;;;;5.70;5.30;;;;;;;20.69;55.34;95056.72;5008470;28;20218;-62
2022/09/03 08:38:53;;;;;;;5.88;5.38;;;;;;;20.84;55.10;95060.94;5004136;28;20217;-63
2022/09/03 08:41:35;;;;;;;5.53;5.13;;;;;;;20.85;54.76;95063.41;5008643;28;20301;-63
2022/09/03 08:44:28;;;;;;;6.60;6.10;;;;;;;20.85;55.24;95057.22;5007669;28;20209;-64
2022/09/03 08:47:15;;;;;;;5.72;5.32;;;;;;;20.81;54.43;95056.03;5001209;28;20218;-63
2022/09/03 08:49:47;;;;;;;5.45;5.05;;;;;;;20.85;54.39;95052.72;5005585;28;20226;-62
2022/09/03 08:52:37;;;;;;;5.10;4.50;;;;;;;21.04;53.51;95050.97;5018867;28;20309;-63
2022/09/03 08:55:27;;;;;;;5.65;5.15;;;;;;;21.07;53.55;95053.22;5004999;28;20226;-62
2022/09/03 08:58:22;;;;;;;5.75;5.35;;;;;;;21.22;53.24;95065.44;5006238;28;20669;-63
2022/09/03 09:01:00;;;;;;;4.90;4.55;;;;;;;21.09;53.28;95061.00;5006990;28;20640;-65
2022/09/03 09:03:47;;;;;;;6.95;6.35;;;;;;;21.24;53.39;95060.69;5006995;28;20443;-62
2022/09/03 09:06:41;;;;;;;6.00;5.50;;;;;;;21.41;53.66;95061.00;5003965;28;20651;-65
2022/09/03 09:09:36;;;;;;;5.57;5.18;;;;;;;21.46;52.84;95064.66;5000931;28;20735;-70
2022/09/03 09:12:17;;;;;;;5.50;5.10;;;;;;;21.18;53.77;95066.91;4998234;28;20254;-61
2022/09/03 09:14:45;;;;;;;5.97;5.57;;;;;;;21.40;53.23;95070.88;5001013;28;20302;-67
2022/09/03 09:17:23;;;;;;;5.75;5.28;;;;;;;21.40;52.24;95076.25;5007629;28;20207;-65
2022/09/03 09:20:25;;;;;;;6.28;5.88;;;;;;;21.73;52.17;95069.78;5006781;28;20226;-61
2022/09/03 09:23:02;;;;;;;5.25;4.85;;;;;;;21.78;51.28;95067.28;5004780;28;20238;-70
2022/09/03 09:25:30;;;;;;;5.75;5.35;;;;;;;21.67;51.85;95059.97;5007269;28;20230;-65
2022/09/03 09:28:15;;;;;;;6.13;5.68;;;;;;;22.00;50.99;95068.50;5008084;28;20242;-65
2022/09/03 09:30:43;;;;;;;6.10;5.57;;;;;;;21.94;51.29;95071.25;5003721;28;20226;-65
2022/09/03 09:33:08;;;;;;;5.75;5.25;;;;;;;21.97;51.03;95062.75;5007001;28;21001;-69
2022/09/03 09:35:34;;;;;;;6.30;5.80;;;;;;;22.31;50.69;95069.44;5004342;28;20230;-65
2022/09/03 09:37:59;;;;;;;6.35;5.85;;;;;;;22.49;50.40;95063.25;5009481;28;20211;-65
2022/09/03 09:40:31;;;;;;;5.80;5.30;;;;;;;22.54;49.45;95059.91;5003240;28;20225;-62
2022/09/03 09:43:14;;;;;;;5.28;4.88;;;;;;;22.27;50.43;95059.41;5004216;28;20231;-65
2022/09/03 09:45:45;;;;;;;5.18;4.78;;;;;;;22.27;50.23;95054.06;5002999;28;20850;-62
2022/09/03 09:48:30;;;;;;;5.25;4.75;;;;;;;22.21;50.10;95061.09;5007190;28;20712;-61
2022/09/03 09:51:13;;;;;;;5.75;4.93;;;;;;;22.14;50.59;95057.66;5001685;28;20629;-69
2022/09/03 09:53:40;;;;;;;7.32;5.32;;;;;;;22.46;50.43;95066.41;5016761;28;20656;-66
2022/09/03 09:56:06;;;;;;;6.25;5.75;;;;;;;22.65;49.72;95073.38;5010858;28;20206;-63
2022/09/03 09:58:33;;;;;;;5.53;5.03;;;;;;;22.63;49.22;95069.28;5007052;28;21202;-66
2022/09/03 10:01:21;;;;;;;5.40;5.05;;;;;;;22.72;49.32;95067.09;5012072;28;20593;-68
2022/09/03 10:03:51;;;;;;;5.55;5.25;;;;;;;22.60;49.19;95080.44;5009665;28;20219;-64
2022/09/03 10:09:12;;;;;;;5.30;4.90;;;;;;;22.06;51.10;95074.84;5007773;28;20307;-67
2022/09/03 10:11:43;;;;;;;6.45;5.50;;;;;;;22.35;50.19;95061.78;5006120;28;20776;-66
2022/09/03 10:14:20;;;;;;;5.55;5.15;;;;;;;22.54;49.93;95065.28;5005308;28;20199;-66
2022/09/03 10:16:53;;;;;;;6.25;5.70;;;;;;;22.79;48.86;95057.91;5007452;28;20261;-63
2022/09/03 10:19:29;;;;;;;5.43;5.03;;;;;;;22.78;49.23;95056.28;5011745;28;20223;-67
2022/09/03 10:22:06;;;;;;;6.03;5.57;;;;;;;22.61;49.90;95057.94;5006668;28;20238;-65
2022/09/03 10:24:50;;;;;;;5.82;5.32;;;;;;;22.43;50.59;95066.84;4999391;28;20226;-61
2022/09/03 10:27:17;;;;;;;5.60;5.10;;;;;;;22.52;50.66;95057.44;5008409;28;20223;-61
2022/09/03 10:29:43;;;;;;;6.13;5.63;;;;;;;22.82;51.94;95052.09;5008943;28;20245;-70
2022/09/03 10:32:22;;;;;;;5.63;5.22;;;;;;;23.23;49.36;95057.75;5008223;28;20254;-64
2022/09/03 10:34:58;;;;;;;5.55;5.15;;;;;;;23.12;48.35;95053.97;5009589;28;20254;-58
2022/09/03 10:37:43;;;;;;;6.30;5.70;;;;;;;23.21;48.79;95051.81;4998076;28;20890;-62
2022/09/03 10:40:49;;;;;;;6.25;5.75;;;;;;;23.23;48.41;95058.59;5002381;28;20222;-64
2022/09/03 10:43:40;;;;;;;5.82;5.30;;;;;;;23.31;47.45;95046.69;5008989;28;20254;-65
2022/09/03 10:46:12;;;;;;;5.82;5.43;;;;;;;23.40;47.42;95057.91;5006237;28;20305;-62
2022/09/03 10:48:59;;;;;;;5.60;5.03;;;;;;;23.76;47.17;95056.91;5007809;28;20762;-66
2022/09/03 10:51:32;;;;;;;5.47;5.07;;;;;;;23.70;46.78;95055.13;5010823;28;20643;-64
2022/09/03 10:54:27;;;;;;;5.68;5.28;;;;;;;23.56;46.98;95058.03;5019223;28;21329;-65
2022/09/03 10:57:14;;;;;;;5.72;5.25;;;;;;;23.69;48.55;95056.19;5008511;28;20230;-63
2022/09/03 11:00:09;;;;;;;5.88;5.47;;;;;;;23.79;46.46;95051.09;5007707;28;20239;-62
2022/09/03 11:02:54;;;;;;;6.10;5.50;;;;;;;23.65;47.17;95050.47;5028994;28;20296;-62
2022/09/03 11:05:28;;;;;;;5.07;4.68;;;;;;;23.81;45.80;95050.84;5005285;28;20207;-65
2022/09/03 11:08:05;;;;;;;5.18;4.80;;;;;;;23.92;45.44;95050.88;5010904;28;20208;-63
2022/09/03 11:10:34;;;;;;;4.75;4.35;;;;;;;23.86;44.92;95046.41;5007460;28;20314;-61
2022/09/03 11:13:17;;;;;;;5.00;4.70;;;;;;;23.83;45.93;95051.44;5008837;28;20217;-60
2022/09/03 11:15:59;;;;;;;5.18;4.78;;;;;;;23.93;45.49;95047.13;5022949;28;20575;-64
2022/09/03 11:18:37;;;;;;;4.82;4.53;;;;;;;24.03;45.52;95056.44;5011114;28;20345;-64
2022/09/03 11:21:09;;;;;;;5.13;4.72;;;;;;;24.12;46.52;95058.56;4998163;28;20318;-64
2022/09/03 11:23:39;;;;;;;5.10;4.53;;;;;;;24.27;44.97;95055.38;5009167;28;20282;-65
2022/09/03 11:26:12;;;;;;;4.22;3.92;;;;;;;24.23;44.33;95061.47;5005696;28;20558;-64
2022/09/03 11:29:07;;;;;;;4.38;4.07;;;;;;;24.16;44.16;95061.56;5006249;28;21022;-64
2022/09/03 11:32:07;;;;;;;4.28;3.97;;;;;;;24.20;44.54;95058.19;5003752;28;20219;-60
2022/09/03 11:34:45;;;;;;;4.80;4.40;;;;;;;24.34;44.37;95047.19;5009805;28;20226;-63
2022/09/03 11:37:13;;;;;;;5.22;4.82;;;;;;;24.25;45.13;95044.06;5003048;28;20227;-65
2022/09/03 11:39:39;;;;;;;4.72;4.43;;;;;;;24.39;44.19;95047.28;5008031;28;20231;-63
2022/09/03 11:42:11;;;;;;;4.40;4.10;;;;;;;24.60;43.33;95046.69;5007681;28;20219;-64
2022/09/03 11:44:44;;;;;;;4.20;3.90;;;;;;;24.77;43.26;95045.91;5008888;28;20226;-68
2022/09/03 11:47:19;;;;;;;5.20;3.95;;;;;;;24.67;43.31;95049.22;5005444;28;20271;-64
2022/09/03 11:49:49;;;;;;;5.00;4.55;;;;;;;24.80;43.51;95053.50;5005195;28;20257;-61
2022/09/03 11:52:24;;;;;;;4.18;3.88;;;;;;;25.03;42.07;95056.09;5008026;28;20223;-62
2022/09/03 11:54:50;;;;;;;4.53;4.22;;;;;;;25.27;42.45;95056.84;5010454;28;20232;-66
2022/09/03 11:57:24;;;;;;;4.25;3.95;;;;;;;25.46;42.00;95062.81;5007284;28;20535;-72
2022/09/03 11:59:50;;;;;;;4.07;3.78;;;;;;;25.63;40.85;95053.91;5006631;28;20241;-61
2022/09/03 12:02:29;;;;;;;5.00;4.47;;;;;;;25.67;40.18;95050.50;5007039;28;20308;-65